Dowa, Malawi
Current Conditions -  °F | °C
As of 12:00 PM on Sunday 21 Dec 2014 (Local Time) from FVHA Reporting Station
Scattered Clouds Scattered Clouds  
Wind Chill: 72°   Ceiling: Unl
Heat Index: 72°   Visibility: 6mi
Dew Point: 66°   Wind: 5mph
Humidity: 83%   Direction: 310°NW
Pressure: 30.12"   Gusts: NA
Location:  13.65°S, 33.93°E
Report Text: FVHA 211000Z 31004KT 290V350 9999 FEW020 SCT090 22/19 Q1020 RERA NOSIG
Loading
Personal Weather Stations






























Interactive Weather Map New forecast layout! Learn more

10-Day Weather Forecast

Advertisements
Track Severe Weather on mobile